Kimry, Russia
Current Conditions -  °F | °C
As of 9:00 PM on Tuesday 21 Oct 2014 (Local Time) from UUEE Reporting Station
Overcast Overcast  
Wind Chill: 14°   Ceiling: 1000
Heat Index: 27°   Visibility: 6mi
Dew Point: 25°   Wind: 18mph
Humidity: 93%   Direction: 320°NW
Pressure: 29.56"   Gusts: NA
Location:  56.87°N, 37.35°E
Report Text: UUEE 211800Z 32008MPS 9999 OVC010 M03/M04 Q1001 7525014525////// NOSIG
Loading
Personal Weather Stations






























Interactive Weather Map
Tropical Storm Tracking
New forecast layout! Learn more

10-Day Weather Forecast

Advertisements
Track Severe Weather on mobile